createdAt,value
2019-01-29T00:00:30.399Z,102.20
2019-01-29T00:03:02.062Z,103.73
2019-01-29T00:05:33.774Z,102.97
2019-01-29T00:08:05.345Z,102.17
2019-01-29T00:10:37.083Z,98.37
2019-01-29T00:13:08.730Z,98.97
2019-01-29T00:15:40.381Z,95.67
2019-01-29T00:18:12.047Z,95.77
2019-01-29T00:20:43.766Z,100.43
2019-01-29T00:23:15.350Z,94.43
2019-01-29T00:25:47.014Z,95.50
2019-01-29T00:28:18.827Z,94.87
2019-01-29T00:30:50.512Z,95.17
2019-01-29T00:33:22.209Z,101.50
2019-01-29T00:35:53.792Z,103.30
2019-01-29T00:38:25.440Z,101.70
2019-01-29T00:40:57.032Z,100.90
2019-01-29T00:43:28.788Z,99.93
2019-01-29T00:46:00.373Z,101.00
2019-01-29T00:48:31.939Z,90.33
2019-01-29T00:51:03.646Z,86.03
2019-01-29T00:53:35.308Z,84.30
2019-01-29T00:56:06.890Z,86.90
2019-01-29T00:58:38.469Z,96.43
2019-01-29T01:01:10.063Z,89.83
2019-01-29T01:03:41.694Z,89.30
2019-01-29T01:06:13.285Z,97.13
2019-01-29T01:08:44.855Z,88.33
2019-01-29T01:11:16.517Z,85.10
2019-01-29T01:13:48.160Z,89.93
2019-01-29T01:16:20.146Z,83.87
2019-01-29T01:18:52.201Z,87.63
2019-01-29T01:21:23.782Z,84.43
2019-01-29T01:23:55.359Z,84.60
2019-01-29T01:26:27.016Z,86.03
2019-01-29T01:28:58.596Z,82.87
2019-01-29T01:31:30.187Z,81.17
2019-01-29T01:34:01.774Z,77.00
2019-01-29T01:36:33.454Z,73.13
2019-01-29T01:39:08.262Z,75.60
2019-01-29T01:41:39.860Z,74.37
2019-01-29T01:44:11.428Z,74.33
2019-01-29T01:46:43.022Z,75.83
2019-01-29T01:49:14.666Z,74.27
2019-01-29T01:51:46.293Z,74.63
2019-01-29T01:54:21.151Z,73.03
2019-01-29T01:56:53.117Z,71.87
2019-01-29T01:59:25.042Z,71.27
2019-01-29T02:01:56.622Z,70.53
2019-01-29T02:04:28.256Z,69.57
2019-01-29T02:06:59.922Z,72.27
2019-01-29T02:09:31.551Z,71.07
2019-01-29T02:12:03.127Z,69.10
2019-01-29T02:14:34.699Z,69.93
2019-01-29T02:17:06.368Z,64.80
2019-01-29T02:19:38.002Z,64.60
2019-01-29T02:22:09.599Z,67.33
2019-01-29T02:24:41.244Z,65.53
2019-01-29T02:27:12.903Z,49.90
2019-01-29T02:29:44.846Z,34.73
2019-01-29T02:32:17.695Z,29.47
2019-01-29T02:34:49.324Z,25.67
2019-01-29T02:37:21.295Z,15.97
2019-01-29T02:39:53.101Z,8.80
2019-01-29T02:42:25.057Z,7.57
2019-01-29T02:44:56.687Z,7.60
2019-01-29T02:47:29.319Z,8.23
2019-01-29T02:50:00.934Z,11.17
2019-01-29T02:52:32.615Z,12.27
2019-01-29T02:55:04.193Z,12.10
2019-01-29T02:57:35.841Z,13.10
2019-01-29T03:00:10.700Z,11.43
2019-01-29T03:02:42.407Z,10.87
2019-01-29T03:05:14.174Z,11.53
2019-01-29T03:07:45.830Z,10.13
2019-01-29T03:10:19.432Z,10.87
2019-01-29T03:12:51.214Z,11.50
2019-01-29T03:15:25.758Z,11.20
2019-01-29T03:17:57.490Z,10.43
2019-01-29T03:20:29.042Z,10.90
2019-01-29T03:23:00.670Z,11.67
2019-01-29T03:25:32.300Z,11.03
2019-01-29T03:28:04.113Z,10.73
2019-01-29T03:30:35.755Z,11.40
2019-01-29T03:33:07.332Z,11.90
2019-01-29T03:35:38.967Z,11.53
2019-01-29T03:38:10.536Z,11.10
2019-01-29T03:40:42.122Z,10.27
2019-01-29T03:43:13.707Z,9.00
2019-01-29T03:45:45.331Z,9.27
2019-01-29T03:48:16.919Z,9.37
2019-01-29T03:50:48.854Z,11.03
2019-01-29T03:53:20.505Z,9.20
2019-01-29T03:55:52.218Z,7.70
2019-01-29T03:58:23.960Z,8.03
2019-01-29T04:00:55.504Z,8.83
2019-01-29T04:03:27.149Z,8.17
2019-01-29T04:05:58.775Z,7.93
2019-01-29T04:08:30.430Z,7.37
2019-01-29T04:11:02.056Z,7.63
2019-01-29T04:13:33.687Z,7.30
2019-01-29T04:16:05.240Z,6.90
2019-01-29T04:18:36.883Z,6.40
2019-01-29T04:21:08.498Z,7.90
2019-01-29T04:23:47.447Z,7.30
2019-01-29T04:26:13.360Z,7.53
2019-01-29T04:28:44.924Z,7.23
2019-01-29T04:31:16.482Z,7.83
2019-01-29T04:33:48.171Z,7.60
2019-01-29T04:36:20.070Z,7.60
2019-01-29T04:38:52.011Z,7.47
2019-01-29T04:41:23.557Z,7.07
2019-01-29T04:43:55.128Z,6.20
2019-01-29T04:46:26.697Z,8.10
2019-01-29T04:48:58.271Z,7.20
2019-01-29T04:51:29.839Z,7.10
2019-01-29T04:54:01.518Z,6.93
2019-01-29T04:56:33.136Z,8.23
2019-01-29T04:59:04.788Z,9.73
2019-01-29T05:01:36.422Z,11.73
2019-01-29T05:04:08.011Z,14.27
2019-01-29T05:06:40.104Z,11.73
2019-01-29T05:09:11.754Z,8.20
2019-01-29T05:11:43.326Z,8.57
2019-01-29T05:14:14.893Z,6.73
2019-01-29T05:16:46.452Z,7.10
2019-01-29T05:19:18.325Z,6.73
2019-01-29T05:21:50.067Z,7.53
2019-01-29T05:24:22.018Z,7.97
2019-01-29T05:26:53.575Z,7.53
2019-01-29T05:29:25.226Z,7.60
2019-01-29T05:31:56.813Z,7.03
2019-01-29T05:34:28.456Z,7.00
2019-01-29T05:37:00.094Z,7.00
2019-01-29T05:39:31.680Z,7.03
2019-01-29T05:42:03.275Z,6.73
2019-01-29T05:44:34.843Z,7.53
2019-01-29T05:47:06.508Z,7.67
2019-01-29T05:49:38.086Z,7.33
2019-01-29T05:52:11.494Z,6.83
2019-01-29T05:54:43.687Z,7.47
2019-01-29T05:57:15.252Z,9.17
2019-01-29T05:59:46.913Z,7.60
2019-01-29T06:02:18.836Z,7.20
2019-01-29T06:04:50.476Z,6.47
2019-01-29T06:07:22.232Z,8.13
2019-01-29T06:09:53.812Z,7.27
2019-01-29T06:12:25.765Z,7.87
2019-01-29T06:14:57.348Z,7.23
2019-01-29T06:17:28.953Z,9.07
2019-01-29T06:20:00.632Z,7.73
2019-01-29T06:22:32.261Z,6.90
2019-01-29T06:25:03.857Z,7.67
2019-01-29T06:27:35.843Z,7.20
2019-01-29T06:30:08.740Z,7.50
2019-01-29T06:32:40.326Z,7.37
2019-01-29T06:35:13.507Z,8.30
2019-01-29T06:37:45.210Z,8.70
2019-01-29T06:40:21.980Z,8.40
2019-01-29T06:42:53.607Z,8.07
2019-01-29T06:45:25.328Z,7.47
2019-01-29T06:47:56.880Z,8.40
2019-01-29T06:50:28.448Z,8.53
2019-01-29T06:53:00.099Z,8.63
2019-01-29T06:55:31.659Z,9.80
2019-01-29T06:58:03.224Z,9.37
2019-01-29T07:00:34.886Z,8.40
2019-01-29T07:03:06.461Z,8.53
2019-01-29T07:05:38.031Z,9.80
2019-01-29T07:08:09.684Z,9.23
2019-01-29T07:10:41.332Z,10.33
2019-01-29T07:13:12.962Z,9.43
2019-01-29T07:16:01.880Z,8.80
2019-01-29T07:18:55.368Z,9.93
2019-01-29T07:21:27.015Z,9.10
2019-01-29T07:23:58.655Z,9.63
2019-01-29T07:26:30.280Z,11.87
2019-01-29T07:29:01.960Z,10.03
2019-01-29T07:31:34.194Z,11.73
2019-01-29T07:34:06.140Z,10.13
2019-01-29T07:36:37.987Z,11.27
2019-01-29T07:39:13.662Z,14.67
2019-01-29T07:41:45.570Z,12.60
2019-01-29T07:44:17.569Z,9.90
2019-01-29T07:46:51.331Z,11.70
2019-01-29T07:49:23.631Z,10.07
2019-01-29T07:51:55.644Z,10.97
2019-01-29T07:54:33.204Z,12.43
2019-01-29T07:57:00.853Z,12.80
2019-01-29T07:59:33.316Z,8.50
2019-01-29T08:02:05.097Z,9.33
2019-01-29T08:04:36.824Z,7.83
2019-01-29T08:07:08.409Z,8.33
2019-01-29T08:09:40.080Z,7.77
2019-01-29T08:12:11.731Z,7.70
2019-01-29T08:14:43.284Z,9.20
2019-01-29T08:17:14.941Z,8.47
2019-01-29T08:19:46.556Z,6.83
2019-01-29T08:22:19.054Z,7.17
2019-01-29T08:24:51.950Z,7.27
2019-01-29T08:27:23.973Z,8.10
2019-01-29T08:29:56.612Z,10.07
2019-01-29T08:32:28.516Z,12.37
2019-01-29T08:35:00.374Z,7.87
2019-01-29T08:37:32.644Z,6.83
2019-01-29T08:40:04.756Z,6.97
2019-01-29T08:42:36.450Z,7.60
2019-01-29T08:45:08.838Z,7.60
2019-01-29T08:47:42.134Z,9.20
2019-01-29T08:50:16.825Z,8.73
2019-01-29T08:52:48.408Z,8.27
2019-01-29T08:55:25.718Z,9.93
2019-01-29T08:57:58.097Z,9.30
2019-01-29T09:00:30.296Z,7.53
2019-01-29T09:03:02.566Z,7.73
2019-01-29T09:05:34.365Z,9.13
2019-01-29T09:08:06.867Z,7.23
2019-01-29T09:10:38.982Z,9.23
2019-01-29T09:13:10.674Z,8.53
2019-01-29T09:15:42.355Z,7.07
2019-01-29T09:18:17.164Z,7.47
2019-01-29T09:20:51.057Z,7.70
2019-01-29T09:23:23.740Z,6.63
2019-01-29T09:25:55.557Z,8.30
2019-01-29T09:28:29.488Z,7.57
2019-01-29T09:31:01.199Z,7.13
2019-01-29T09:33:32.846Z,5.87
2019-01-29T09:36:04.641Z,4.77
2019-01-29T09:38:36.288Z,6.17
2019-01-29T09:41:07.923Z,6.83
2019-01-29T09:43:39.568Z,4.87
2019-01-29T09:46:11.197Z,10.50
2019-01-29T09:48:43.164Z,9.77
2019-01-29T09:51:14.794Z,8.03
2019-01-29T09:53:46.471Z,7.90
2019-01-29T09:56:18.532Z,6.83
2019-01-29T09:58:50.509Z,8.77
2019-01-29T10:01:22.436Z,9.10
2019-01-29T10:03:54.042Z,5.90
2019-01-29T10:06:25.671Z,8.60
2019-01-29T10:08:57.326Z,7.27
2019-01-29T10:11:28.893Z,6.80
2019-01-29T10:14:00.476Z,6.13
2019-01-29T10:16:32.042Z,6.17
2019-01-29T10:19:03.613Z,5.20
2019-01-29T10:21:35.251Z,5.20
2019-01-29T10:24:07.233Z,4.60
2019-01-29T10:26:38.887Z,5.40
2019-01-29T10:29:10.543Z,8.10
2019-01-29T10:31:42.188Z,5.73
2019-01-29T10:34:13.772Z,7.17
2019-01-29T10:36:45.392Z,4.93
2019-01-29T10:39:16.961Z,7.10
2019-01-29T10:41:48.594Z,4.97
2019-01-29T10:44:20.834Z,5.20
2019-01-29T10:46:52.463Z,3.87
2019-01-29T10:49:24.107Z,5.73
2019-01-29T10:51:55.733Z,6.80
2019-01-29T10:54:27.574Z,5.27
2019-01-29T10:56:59.205Z,6.97
2019-01-29T10:59:30.867Z,4.90
2019-01-29T11:02:02.411Z,5.27
2019-01-29T11:04:34.975Z,5.27
2019-01-29T11:07:06.701Z,5.23
2019-01-29T11:09:38.270Z,4.73
2019-01-29T11:12:09.839Z,5.23
2019-01-29T11:14:41.799Z,7.20
2019-01-29T11:17:13.416Z,8.70
2019-01-29T11:19:45.060Z,6.67
2019-01-29T11:22:16.680Z,7.10
2019-01-29T11:24:48.546Z,7.77
2019-01-29T11:27:20.405Z,8.63
2019-01-29T11:29:52.425Z,8.33
2019-01-29T11:32:24.137Z,9.97
2019-01-29T11:34:55.736Z,7.40
2019-01-29T11:37:27.504Z,15.17
2019-01-29T11:39:59.164Z,23.07
2019-01-29T11:42:31.792Z,10.17
2019-01-29T11:45:03.475Z,14.07
2019-01-29T11:47:35.103Z,12.57
2019-01-29T11:50:07.203Z,6.90
2019-01-29T11:52:38.841Z,8.73
2019-01-29T11:55:10.562Z,8.73
2019-01-29T11:57:42.273Z,9.97
2019-01-29T12:00:19.535Z,9.13
2019-01-29T12:02:51.445Z,6.50
2019-01-29T12:05:23.355Z,8.80
2019-01-29T12:07:55.259Z,8.03
2019-01-29T12:10:27.091Z,6.50
2019-01-29T12:12:58.717Z,9.40
2019-01-29T12:15:30.288Z,9.07
2019-01-29T12:18:01.928Z,9.17
2019-01-29T12:20:33.580Z,22.43
2019-01-29T12:23:05.264Z,11.43
2019-01-29T12:25:36.847Z,17.63
2019-01-29T12:28:09.485Z,8.30
2019-01-29T12:30:41.130Z,11.03
2019-01-29T12:33:12.766Z,9.07
2019-01-29T12:35:44.614Z,7.57
2019-01-29T12:38:16.251Z,8.77
2019-01-29T12:40:47.883Z,10.37
2019-01-29T12:43:19.582Z,15.93
2019-01-29T12:45:51.424Z,15.20
2019-01-29T12:48:23.289Z,11.07
2019-01-29T12:50:59.518Z,9.00
2019-01-29T12:53:38.858Z,11.80
2019-01-29T12:56:10.562Z,10.17
2019-01-29T12:58:42.181Z,6.80
2019-01-29T13:01:13.830Z,6.40
2019-01-29T13:03:45.502Z,12.73
2019-01-29T13:06:19.736Z,9.50
2019-01-29T13:08:58.455Z,16.17
2019-01-29T13:11:34.451Z,15.77
2019-01-29T13:14:08.223Z,6.57
2019-01-29T13:16:40.607Z,6.57
2019-01-29T13:19:12.359Z,8.70
2019-01-29T13:21:44.880Z,12.77
2019-01-29T13:24:17.891Z,15.20
2019-01-29T13:26:49.681Z,6.80
2019-01-29T13:29:21.570Z,8.67
2019-01-29T13:31:53.448Z,12.10
2019-01-29T13:34:25.496Z,13.57
2019-01-29T13:36:57.232Z,6.67
2019-01-29T13:39:28.898Z,11.20
2019-01-29T13:42:00.597Z,8.10
2019-01-29T13:44:32.230Z,7.80
2019-01-29T13:47:10.036Z,8.10
2019-01-29T13:49:41.688Z,4.77
2019-01-29T13:52:13.290Z,35.47
2019-01-29T13:54:46.179Z,10.40
2019-01-29T13:57:19.632Z,15.63
2019-01-29T13:59:51.238Z,19.70
2019-01-29T14:02:22.906Z,18.93
2019-01-29T14:04:55.928Z,20.47
2019-01-29T14:07:28.858Z,11.47
2019-01-29T14:10:02.451Z,5.07
2019-01-29T14:12:35.235Z,22.30
2019-01-29T14:15:08.112Z,10.77
2019-01-29T14:17:40.474Z,12.13
2019-01-29T14:20:15.043Z,8.53
2019-01-29T14:22:46.790Z,9.20
2019-01-29T14:25:18.851Z,10.00
2019-01-29T14:27:57.628Z,8.83
2019-01-29T14:30:31.719Z,9.23
2019-01-29T14:33:03.575Z,6.20
2019-01-29T14:35:35.571Z,16.30
2019-01-29T14:38:48.683Z,58.93
2019-01-29T14:41:21.789Z,20.90
2019-01-29T14:43:58.304Z,92.40
2019-01-29T14:46:29.978Z,89.77
2019-01-29T14:49:01.711Z,42.83
2019-01-29T14:51:34.367Z,22.80
2019-01-29T14:54:05.985Z,39.93
2019-01-29T14:56:37.642Z,18.37
2019-01-29T14:59:09.242Z,26.20
2019-01-29T15:01:40.810Z,13.73
2019-01-29T15:04:12.479Z,53.07
2019-01-29T15:06:44.203Z,19.07
2019-01-29T15:09:17.537Z,17.10
2019-01-29T15:11:49.814Z,20.93
2019-01-29T15:14:21.773Z,30.90
2019-01-29T15:17:01.933Z,29.87
2019-01-29T15:19:34.134Z,33.33
2019-01-29T15:22:05.712Z,46.87
2019-01-29T15:24:37.290Z,24.10
2019-01-29T15:27:08.936Z,32.47
2019-01-29T15:29:40.508Z,35.07
2019-01-29T15:32:12.062Z,58.87
2019-01-29T15:34:43.708Z,46.70
2019-01-29T15:37:15.366Z,42.60
2019-01-29T15:39:47.022Z,51.03
2019-01-29T15:42:18.782Z,40.77
2019-01-29T15:44:50.598Z,30.23
2019-01-29T15:47:22.559Z,25.47
2019-01-29T15:49:54.194Z,29.30
2019-01-29T15:52:25.846Z,15.87
2019-01-29T15:54:57.400Z,16.80
2019-01-29T15:57:29.030Z,20.03
2019-01-29T16:00:00.674Z,19.27
2019-01-29T16:02:32.296Z,20.50
2019-01-29T16:05:03.887Z,17.63
2019-01-29T16:07:36.508Z,17.47
2019-01-29T16:10:09.808Z,25.77
2019-01-29T16:12:41.470Z,24.20
2019-01-29T16:15:14.504Z,16.40
2019-01-29T16:17:46.074Z,24.33
2019-01-29T16:20:19.231Z,20.80
2019-01-29T16:22:50.849Z,18.90
2019-01-29T16:25:22.938Z,21.00
2019-01-29T16:27:54.568Z,21.70
2019-01-29T16:30:27.092Z,22.37
2019-01-29T16:32:58.744Z,26.80
2019-01-29T16:35:31.738Z,35.27
2019-01-29T16:38:03.390Z,30.73
2019-01-29T16:40:35.067Z,22.77
2019-01-29T16:43:07.708Z,19.43
2019-01-29T16:45:39.364Z,16.20
2019-01-29T16:48:11.026Z,17.87
2019-01-29T16:50:42.697Z,19.07
2019-01-29T16:53:14.350Z,17.23
2019-01-29T16:55:45.989Z,19.03
2019-01-29T16:58:26.268Z,15.23
2019-01-29T17:00:58.085Z,16.33
2019-01-29T17:03:30.568Z,13.33
2019-01-29T17:06:02.192Z,14.87
2019-01-29T17:08:33.840Z,21.07
2019-01-29T17:11:06.470Z,18.67
2019-01-29T17:13:38.096Z,96.30
2019-01-29T17:16:09.735Z,66.87
2019-01-29T17:18:41.378Z,41.90
2019-01-29T17:21:12.940Z,64.03
2019-01-29T17:23:44.990Z,92.97
2019-01-29T17:26:16.708Z,96.47
2019-01-29T17:28:48.373Z,107.93
2019-01-29T17:31:20.346Z,82.43
2019-01-29T17:33:52.283Z,82.07
2019-01-29T17:36:24.138Z,87.80
2019-01-29T17:38:56.061Z,93.53
2019-01-29T17:41:27.856Z,94.77
2019-01-29T17:44:01.415Z,94.00
2019-01-29T17:46:34.142Z,86.03
2019-01-29T17:49:05.827Z,89.90
2019-01-29T17:51:37.502Z,104.47
2019-01-29T17:54:10.732Z,98.67
2019-01-29T17:56:43.021Z,85.17
2019-01-29T17:59:14.694Z,77.43
2019-01-29T18:01:46.276Z,80.77
2019-01-29T18:04:18.840Z,80.67
2019-01-29T18:06:50.493Z,68.90
2019-01-29T18:09:22.534Z,69.00
2019-01-29T18:11:54.249Z,77.57
2019-01-29T18:14:26.097Z,67.60
2019-01-29T18:16:57.755Z,76.10
2019-01-29T18:19:29.395Z,76.90
2019-01-29T18:22:01.043Z,101.77
2019-01-29T18:24:32.677Z,87.63
2019-01-29T18:27:04.332Z,85.07
2019-01-29T18:29:35.918Z,75.63
2019-01-29T18:32:07.495Z,84.63
2019-01-29T18:34:39.135Z,92.53
2019-01-29T18:37:10.781Z,93.40
2019-01-29T18:39:42.434Z,94.57
2019-01-29T18:42:14.068Z,86.30
2019-01-29T18:44:45.655Z,88.63
2019-01-29T18:47:17.520Z,95.60
2019-01-29T18:49:49.250Z,99.00
2019-01-29T18:52:21.465Z,92.27
2019-01-29T18:54:57.027Z,86.10
2019-01-29T18:57:31.510Z,94.03
2019-01-29T19:00:04.230Z,95.57
2019-01-29T19:02:36.631Z,113.03
2019-01-29T19:05:10.733Z,112.70
2019-01-29T19:07:44.791Z,121.10
2019-01-29T19:10:17.897Z,151.87
2019-01-29T19:12:50.159Z,138.30
2019-01-29T19:15:23.415Z,125.00
2019-01-29T19:17:56.153Z,79.20
2019-01-29T19:20:33.770Z,69.33
2019-01-29T19:23:05.994Z,50.77
2019-01-29T19:25:38.131Z,59.30
2019-01-29T19:28:21.433Z,49.03
2019-01-29T19:30:47.621Z,53.60
2019-01-29T19:33:20.722Z,60.47
2019-01-29T19:35:52.790Z,68.90
2019-01-29T19:38:25.116Z,66.27
2019-01-29T19:40:59.750Z,70.33
2019-01-29T19:43:33.195Z,60.37
2019-01-29T19:46:05.373Z,67.93
2019-01-29T19:48:37.055Z,65.17
2019-01-29T19:51:10.026Z,77.30
2019-01-29T19:53:42.479Z,63.17
2019-01-29T19:56:14.594Z,59.03
2019-01-29T19:58:46.554Z,58.33
2019-01-29T20:01:19.511Z,55.67
2019-01-29T20:03:51.488Z,54.97
2019-01-29T20:06:23.710Z,92.77
2019-01-29T20:08:57.142Z,62.63
2019-01-29T20:11:30.253Z,63.23
2019-01-29T20:14:04.809Z,41.23
2019-01-29T20:16:40.788Z,50.80
2019-01-29T20:19:13.033Z,44.50
2019-01-29T20:21:45.166Z,139.00
2019-01-29T20:24:18.423Z,176.53
2019-01-29T20:26:51.052Z,124.87
2019-01-29T20:29:25.469Z,70.87
2019-01-29T20:31:57.442Z,64.67
2019-01-29T20:34:30.485Z,49.33
2019-01-29T20:37:05.425Z,63.43
2019-01-29T20:39:37.998Z,55.10
2019-01-29T20:42:10.764Z,50.10
2019-01-29T20:44:43.525Z,47.47
2019-01-29T20:47:17.643Z,48.60
2019-01-29T20:49:51.612Z,53.70
2019-01-29T20:52:23.909Z,56.73
2019-01-29T20:54:56.345Z,50.87
2019-01-29T20:57:49.158Z,52.07
2019-01-29T21:00:28.922Z,74.17
2019-01-29T21:03:01.329Z,91.03
2019-01-29T21:05:33.041Z,81.80
2019-01-29T21:08:06.079Z,44.73
2019-01-29T21:10:38.026Z,45.93
2019-01-29T21:13:10.889Z,53.97
2019-01-29T21:15:44.379Z,47.80
2019-01-29T21:18:16.096Z,48.97
2019-01-29T21:20:56.652Z,66.67
2019-01-29T21:23:21.314Z,52.37
2019-01-29T21:25:52.992Z,78.47
2019-01-29T21:28:24.836Z,111.87
2019-01-29T21:30:56.558Z,130.70
2019-01-29T21:33:28.322Z,99.67
2019-01-29T21:36:00.074Z,91.73
2019-01-29T21:38:31.757Z,82.60
2019-01-29T21:41:03.500Z,76.67
2019-01-29T21:43:35.468Z,73.63
2019-01-29T21:46:07.147Z,61.60
2019-01-29T21:48:38.851Z,78.97
2019-01-29T21:51:10.546Z,76.67
2019-01-29T21:53:42.264Z,77.17
2019-01-29T21:56:14.021Z,50.97
2019-01-29T21:58:45.702Z,67.13
2019-01-29T22:01:17.443Z,59.73
2019-01-29T22:03:49.127Z,75.23
2019-01-29T22:06:21.569Z,60.63
2019-01-29T22:08:53.167Z,61.83
2019-01-29T22:11:24.891Z,48.73
2019-01-29T22:13:56.644Z,34.37
2019-01-29T22:16:28.302Z,140.07
2019-01-29T22:18:59.978Z,108.30
2019-01-29T22:21:31.642Z,87.77
2019-01-29T22:24:03.300Z,44.53
2019-01-29T22:26:35.948Z,69.00
2019-01-29T22:29:07.987Z,55.97
2019-01-29T22:31:39.572Z,62.40
2019-01-29T22:34:11.227Z,64.23
2019-01-29T22:36:42.883Z,53.37
2019-01-29T22:39:14.550Z,33.23
2019-01-29T22:41:46.201Z,39.37
2019-01-29T22:44:17.867Z,39.17
2019-01-29T22:46:49.450Z,49.13
2019-01-29T22:49:21.571Z,48.87
2019-01-29T22:51:53.222Z,46.90
2019-01-29T22:54:24.783Z,56.70
2019-01-29T22:56:56.552Z,59.47
2019-01-29T22:59:33.454Z,39.57
2019-01-29T23:02:01.548Z,37.37
2019-01-29T23:04:43.211Z,31.03
2019-01-29T23:07:23.593Z,31.37
2019-01-29T23:09:55.614Z,36.07
2019-01-29T23:12:27.562Z,44.57
2019-01-29T23:14:59.387Z,38.77
2019-01-29T23:17:31.038Z,32.77
2019-01-29T23:20:02.690Z,32.40
2019-01-29T23:22:34.439Z,29.17
2019-01-29T23:25:06.644Z,27.87
2019-01-29T23:27:38.285Z,26.50
2019-01-29T23:30:13.445Z,25.03
2019-01-29T23:32:45.094Z,22.20
2019-01-29T23:35:16.718Z,18.40
2019-01-29T23:37:48.404Z,24.67
2019-01-29T23:40:21.504Z,20.80
2019-01-29T23:42:53.083Z,21.47
2019-01-29T23:45:24.730Z,21.50
2019-01-29T23:48:02.404Z,24.57
2019-01-29T23:50:34.137Z,22.63
2019-01-29T23:53:05.760Z,24.50
2019-01-29T23:55:37.403Z,29.80
2019-01-29T23:58:09.042Z,19.57
